Time;durP1;ratioP1;P1;durP2;ratioP2;P2;SDS_P1;SDS_P2;PMS_P1;PMS_P2;Temp;Humidity;BMP_temperature;BMP_pressure;BME280_temperature;BME280_humidity;BME280_pressure;Samples;Min_cycle;Max_cycle;Signal;HPM_P1;HPM_P2
2022/11/09 00:01:03;;;;;;;2.45;1.00;;;17.10;99.90;;;;;;5055078;28;20181;-75
2022/11/09 00:03:31;;;;;;;1.17;0.90;;;17.10;99.90;;;;;;5053118;28;20178;-77
2022/11/09 00:05:58;;;;;;;1.55;1.00;;;17.10;99.90;;;;;;5052246;28;20209;-76
2022/11/09 00:08:24;;;;;;;1.40;1.00;;;17.10;99.90;;;;;;5045071;28;20170;-77
2022/11/09 00:10:54;;;;;;;2.22;1.13;;;17.20;99.90;;;;;;5049687;28;20173;-76
2022/11/09 00:13:20;;;;;;;2.20;1.25;;;17.10;99.90;;;;;;5050433;28;20197;-76
2022/11/09 00:15:48;;;;;;;1.10;0.80;;;17.10;99.90;;;;;;5052782;28;20193;-77
2022/11/09 00:18:14;;;;;;;1.45;0.90;;;17.10;99.90;;;;;;5054855;28;20181;-78
2022/11/09 00:20:42;;;;;;;1.30;0.95;;;17.10;99.90;;;;;;5051452;28;20196;-76
2022/11/09 00:23:07;;;;;;;1.70;0.82;;;17.10;99.90;;;;;;5052127;28;20185;-78
2022/11/09 00:25:33;;;;;;;1.42;0.98;;;17.20;99.90;;;;;;5051820;28;20197;-76
2022/11/09 00:27:58;;;;;;;1.38;0.90;;;17.10;99.90;;;;;;5050866;28;20205;-76
2022/11/09 00:30:29;;;;;;;1.40;1.08;;;17.10;99.90;;;;;;5048420;28;20177;-76
2022/11/09 00:32:57;;;;;;;2.95;0.90;;;17.20;99.90;;;;;;5052245;28;20178;-76
2022/11/09 00:35:23;;;;;;;1.67;1.00;;;17.10;99.90;;;;;;5051149;28;20174;-76
2022/11/09 00:37:48;;;;;;;1.17;0.88;;;17.10;99.90;;;;;;5053714;28;20203;-78
2022/11/09 00:40:14;;;;;;;1.10;0.90;;;17.10;99.90;;;;;;5061116;28;20200;-76
2022/11/09 00:42:40;;;;;;;1.90;0.90;;;17.10;99.90;;;;;;5050907;28;20169;-75
2022/11/09 00:45:06;;;;;;;1.35;0.90;;;17.10;99.90;;;;;;5054411;28;20380;-75
2022/11/09 00:48:11;;;;;;;2.25;1.00;;;17.10;99.90;;;;;;5053216;28;20201;-75
2022/11/09 00:50:37;;;;;;;1.13;0.77;;;17.10;99.90;;;;;;5050815;28;20181;-76
2022/11/09 00:53:02;;;;;;;1.40;0.85;;;17.10;99.90;;;;;;5049570;28;20174;-75
2022/11/09 00:55:28;;;;;;;1.40;0.80;;;17.10;99.90;;;;;;5048707;28;20201;-76
2022/11/09 00:57:53;;;;;;;1.15;0.80;;;17.00;99.90;;;;;;5053691;28;20177;-77
2022/11/09 01:00:23;;;;;;;1.00;0.90;;;17.00;99.90;;;;;;5053243;28;20462;-76
2022/11/09 01:02:51;;;;;;;1.40;0.80;;;17.00;99.90;;;;;;5058645;28;20200;-76
2022/11/09 01:05:20;;;;;;;0.90;0.75;;;17.00;99.90;;;;;;5051702;28;20199;-77
2022/11/09 01:07:46;;;;;;;1.45;0.80;;;17.00;99.90;;;;;;5049075;28;20173;-74
2022/11/09 01:10:13;;;;;;;1.20;0.70;;;17.00;99.90;;;;;;5066809;28;20276;-75
2022/11/09 01:12:45;;;;;;;1.75;0.95;;;17.00;99.90;;;;;;5065108;28;20268;-77
2022/11/09 01:15:13;;;;;;;1.58;0.90;;;17.00;99.90;;;;;;5051648;28;20197;-76
2022/11/09 01:17:39;;;;;;;1.40;1.00;;;17.00;99.90;;;;;;5051080;28;20200;-76
2022/11/09 01:20:05;;;;;;;1.00;0.90;;;17.10;99.90;;;;;;5051949;28;20169;-76
2022/11/09 01:22:31;;;;;;;2.63;0.90;;;17.00;99.90;;;;;;5070304;28;20213;-74
2022/11/09 01:24:56;;;;;;;1.67;1.17;;;17.10;99.90;;;;;;5056719;28;20265;-75
2022/11/09 01:27:22;;;;;;;1.70;1.00;;;17.10;99.90;;;;;;5050847;28;20197;-77
2022/11/09 01:29:50;;;;;;;1.45;0.82;;;17.10;99.90;;;;;;5056138;28;20216;-75
2022/11/09 01:32:15;;;;;;;1.30;0.90;;;17.00;99.90;;;;;;5058747;28;20257;-76
2022/11/09 01:34:43;;;;;;;1.27;0.80;;;17.10;99.90;;;;;;5054056;28;20284;-75
2022/11/09 01:37:09;;;;;;;1.45;0.90;;;17.10;99.90;;;;;;5051176;28;20250;-74
2022/11/09 01:39:34;;;;;;;4.00;1.20;;;17.10;99.90;;;;;;5050930;28;20276;-76
2022/11/09 01:42:02;;;;;;;1.60;0.93;;;17.10;99.90;;;;;;5052202;28;20315;-77
2022/11/09 01:44:32;;;;;;;1.00;0.90;;;17.10;99.90;;;;;;5054496;28;20173;-76
2022/11/09 01:47:05;;;;;;;1.58;1.10;;;17.10;99.90;;;;;;5052992;28;20200;-75
2022/11/09 01:49:52;;;;;;;1.02;0.77;;;17.10;99.90;;;;;;5055460;28;20181;-75
2022/11/09 01:52:34;;;;;;;0.98;0.73;;;17.10;99.90;;;;;;5054361;28;20173;-76
2022/11/09 01:55:05;;;;;;;2.53;0.80;;;17.10;99.90;;;;;;5056078;28;20200;-74
2022/11/09 01:57:38;;;;;;;1.42;0.90;;;17.00;99.90;;;;;;5068322;28;20231;-75
2022/11/09 02:00:10;;;;;;;1.17;0.80;;;17.00;99.90;;;;;;5057527;28;20172;-76
2022/11/09 02:02:39;;;;;;;2.15;0.73;;;17.00;99.90;;;;;;5058451;28;20191;-75
2022/11/09 02:05:09;;;;;;;2.10;0.85;;;17.00;99.90;;;;;;5045934;28;20334;-76
2022/11/09 02:07:36;;;;;;;1.25;0.80;;;17.00;99.90;;;;;;5056962;28;20269;-76
2022/11/09 02:10:35;;;;;;;1.77;0.77;;;17.00;99.90;;;;;;5052786;28;20533;-76
2022/11/09 02:13:02;;;;;;;1.88;0.85;;;17.00;99.90;;;;;;5033490;28;20395;-76
2022/11/09 02:15:28;;;;;;;1.00;0.80;;;17.00;99.90;;;;;;5055924;28;20197;-76
2022/11/09 02:17:55;;;;;;;2.25;0.70;;;17.00;99.90;;;;;;5055393;28;20266;-75
2022/11/09 02:20:24;;;;;;;0.90;0.70;;;17.00;99.90;;;;;;5064609;28;20229;-76
2022/11/09 02:22:53;;;;;;;1.50;0.75;;;16.90;99.90;;;;;;5049532;28;20181;-75
2022/11/09 02:25:21;;;;;;;0.80;0.70;;;16.90;99.90;;;;;;5057016;28;20209;-74
2022/11/09 02:27:50;;;;;;;1.23;0.63;;;16.90;99.90;;;;;;5054220;28;20204;-75
2022/11/09 02:30:19;;;;;;;0.80;0.60;;;16.90;99.90;;;;;;5055527;28;20272;-75
2022/11/09 02:32:46;;;;;;;0.73;0.68;;;16.90;99.90;;;;;;5053293;28;20230;-77
2022/11/09 02:35:13;;;;;;;1.90;0.80;;;16.80;99.90;;;;;;5052312;28;20247;-73
2022/11/09 02:37:46;;;;;;;0.88;0.70;;;16.80;99.90;;;;;;5038809;28;20182;-75
2022/11/09 02:40:37;;;;;;;1.75;0.90;;;16.80;99.90;;;;;;5051635;28;20177;-78
2022/11/09 02:43:05;;;;;;;2.15;0.77;;;16.70;99.90;;;;;;5055639;28;20212;-75
2022/11/09 02:45:31;;;;;;;1.33;0.90;;;16.70;99.90;;;;;;5047998;28;20277;-76
2022/11/09 02:47:56;;;;;;;1.02;0.80;;;16.60;99.90;;;;;;5052765;28;20260;-76
2022/11/09 02:50:25;;;;;;;0.77;0.75;;;16.60;99.90;;;;;;5048049;28;20182;-75
2022/11/09 02:52:57;;;;;;;1.58;0.80;;;16.60;99.90;;;;;;5049426;28;20197;-77
2022/11/09 02:55:23;;;;;;;2.20;1.10;;;16.60;99.90;;;;;;5042358;28;20204;-76
2022/11/09 02:57:51;;;;;;;2.67;0.90;;;16.50;99.90;;;;;;5051579;28;20220;-77
2022/11/09 03:00:19;;;;;;;0.95;0.65;;;16.50;99.90;;;;;;5053800;28;20201;-76
2022/11/09 03:02:45;;;;;;;1.35;0.80;;;16.50;99.90;;;;;;5055716;28;20173;-77
2022/11/09 03:05:10;;;;;;;1.48;0.82;;;16.40;99.90;;;;;;5054330;28;20276;-76
2022/11/09 03:07:36;;;;;;;2.03;0.90;;;16.40;99.90;;;;;;5051848;28;20177;-76
2022/11/09 03:10:02;;;;;;;1.52;0.90;;;16.40;99.90;;;;;;5055838;28;20169;-77
2022/11/09 03:12:28;;;;;;;2.13;1.05;;;16.40;99.90;;;;;;5041507;28;20184;-77
2022/11/09 03:15:34;;;;;;;4.20;0.90;;;16.40;99.90;;;;;;5052657;28;20174;-76
2022/11/09 03:17:59;;;;;;;1.70;1.00;;;16.40;99.90;;;;;;5050269;28;20181;-77
2022/11/09 03:20:27;;;;;;;1.48;0.80;;;16.40;99.90;;;;;;5048685;28;20265;-76
2022/11/09 03:22:57;;;;;;;1.35;0.77;;;16.30;99.90;;;;;;5054776;28;20250;-77
2022/11/09 03:25:23;;;;;;;0.95;0.73;;;16.30;99.90;;;;;;5052124;28;20201;-76
2022/11/09 03:27:48;;;;;;;1.45;1.00;;;16.40;99.90;;;;;;5047429;28;20262;-77
2022/11/09 03:30:17;;;;;;;2.15;1.05;;;16.40;99.90;;;;;;5053361;28;20198;-78
2022/11/09 03:32:45;;;;;;;1.45;0.80;;;16.40;99.90;;;;;;5052651;28;20220;-79
2022/11/09 03:35:13;;;;;;;1.85;1.00;;;16.40;99.90;;;;;;5050212;28;20181;-77
2022/11/09 03:37:39;;;;;;;1.20;0.70;;;16.40;99.90;;;;;;5054432;28;20223;-77
2022/11/09 03:40:08;;;;;;;2.38;0.90;;;16.40;99.90;;;;;;5052714;28;20177;-78
2022/11/09 03:42:35;;;;;;;1.98;0.80;;;16.40;99.90;;;;;;5047760;28;20277;-76
2022/11/09 03:45:04;;;;;;;1.00;0.70;;;16.40;99.90;;;;;;5051305;28;20169;-75
2022/11/09 03:47:29;;;;;;;0.90;0.60;;;16.40;99.90;;;;;;5052263;28;20196;-77
2022/11/09 03:49:57;;;;;;;5.05;0.90;;;16.40;99.90;;;;;;5047188;28;20174;-78
2022/11/09 03:52:27;;;;;;;1.15;0.70;;;16.40;99.90;;;;;;5053617;28;20268;-79
2022/11/09 03:54:53;;;;;;;1.48;0.70;;;16.50;99.90;;;;;;5041926;28;20194;-76
2022/11/09 03:57:18;;;;;;;1.55;0.80;;;16.50;99.90;;;;;;5036771;28;20185;-77
2022/11/09 03:59:44;;;;;;;1.80;0.80;;;16.50;99.90;;;;;;5055418;28;20193;-78
2022/11/09 04:02:09;;;;;;;1.10;0.60;;;16.50;99.90;;;;;;5055352;28;20197;-79
2022/11/09 04:04:35;;;;;;;3.13;0.70;;;16.50;99.90;;;;;;5055541;28;20192;-76
2022/11/09 04:07:00;;;;;;;1.30;0.60;;;16.50;99.90;;;;;;5054522;28;20225;-77
2022/11/09 04:09:26;;;;;;;1.48;0.85;;;16.60;99.90;;;;;;5058106;28;20189;-77
2022/11/09 04:11:52;;;;;;;1.15;0.80;;;16.60;99.90;;;;;;5046364;28;20181;-78
2022/11/09 04:14:17;;;;;;;0.90;0.63;;;16.60;99.90;;;;;;5046699;28;20198;-77
2022/11/09 04:16:45;;;;;;;1.40;0.60;;;16.60;99.90;;;;;;5053308;28;20177;-78
2022/11/09 04:19:15;;;;;;;1.20;0.55;;;16.60;99.90;;;;;;5056031;28;20200;-76
2022/11/09 04:21:41;;;;;;;2.55;0.70;;;16.60;99.90;;;;;;5046265;28;20230;-77
2022/11/09 04:24:06;;;;;;;1.10;0.70;;;16.60;99.90;;;;;;5054130;28;20189;-78
2022/11/09 04:26:32;;;;;;;1.73;0.70;;;16.60;99.90;;;;;;5053081;28;20255;-77
2022/11/09 04:28:58;;;;;;;1.83;0.70;;;16.60;99.90;;;;;;5052689;28;20200;-78
2022/11/09 04:31:23;;;;;;;1.52;0.70;;;16.60;99.90;;;;;;5055753;28;20169;-76
2022/11/09 04:33:50;;;;;;;1.20;0.60;;;16.60;99.90;;;;;;5062703;28;20272;-75
2022/11/09 04:36:16;;;;;;;1.65;0.80;;;16.60;99.90;;;;;;5050180;28;20197;-75
2022/11/09 04:38:41;;;;;;;1.25;0.80;;;16.60;99.90;;;;;;5052065;28;20200;-75
2022/11/09 04:41:07;;;;;;;1.60;0.90;;;16.60;99.90;;;;;;5050896;28;20196;-73
2022/11/09 04:43:33;;;;;;;1.50;0.90;;;16.60;99.90;;;;;;5052219;28;20205;-75
2022/11/09 04:46:00;;;;;;;1.55;0.70;;;16.70;99.90;;;;;;5050493;28;20255;-76
2022/11/09 04:48:30;;;;;;;1.35;0.80;;;16.70;99.90;;;;;;5055629;28;20184;-75
2022/11/09 04:51:04;;;;;;;1.30;0.80;;;16.60;99.90;;;;;;5052609;28;20194;-73
2022/11/09 04:53:33;;;;;;;1.80;0.70;;;16.70;99.90;;;;;;5051828;28;20249;-75
2022/11/09 04:56:04;;;;;;;0.82;0.70;;;16.60;99.90;;;;;;5039660;28;20185;-76
2022/11/09 04:58:30;;;;;;;1.40;0.80;;;16.60;99.90;;;;;;5047634;28;20196;-75
2022/11/09 05:01:10;;;;;;;2.45;1.10;;;16.70;99.90;;;;;;5058370;28;20174;-75
2022/11/09 05:03:36;;;;;;;1.50;0.88;;;16.60;99.90;;;;;;5049569;28;20184;-76
2022/11/09 05:08:47;;;;;;;0.98;0.60;;;16.60;99.90;;;;;;5074883;28;20190;-76
2022/11/09 05:11:15;;;;;;;0.98;0.60;;;16.60;99.90;;;;;;5078506;28;20283;-75
2022/11/09 05:13:41;;;;;;;1.60;0.75;;;16.60;99.90;;;;;;5040555;28;20176;-75
2022/11/09 05:16:08;;;;;;;1.23;0.77;;;16.70;99.90;;;;;;5042291;28;20181;-77
2022/11/09 05:18:34;;;;;;;1.80;1.08;;;16.60;99.90;;;;;;5058325;28;20205;-75
2022/11/09 05:21:01;;;;;;;1.73;1.15;;;16.60;99.90;;;;;;5057201;28;20184;-76
2022/11/09 05:26:10;;;;;;;1.33;0.88;;;16.60;99.90;;;;;;5052431;28;20309;-74
2022/11/09 05:28:38;;;;;;;1.50;0.70;;;16.60;99.90;;;;;;5048606;28;20236;-76
2022/11/09 05:31:05;;;;;;;1.10;0.80;;;16.60;99.90;;;;;;5056556;28;20182;-75
2022/11/09 05:33:30;;;;;;;1.92;1.25;;;16.50;99.90;;;;;;5049820;28;20173;-75
2022/11/09 05:35:57;;;;;;;1.77;1.00;;;16.50;99.90;;;;;;5047168;28;20247;-74
2022/11/09 05:38:23;;;;;;;1.55;0.90;;;16.50;99.90;;;;;;5054648;28;20177;-75
2022/11/09 05:40:53;;;;;;;1.05;0.65;;;16.50;99.90;;;;;;5054014;28;20185;-76
2022/11/09 05:43:19;;;;;;;1.33;0.95;;;16.50;99.90;;;;;;5055091;28;20174;-75
2022/11/09 05:45:45;;;;;;;2.50;0.80;;;16.40;99.90;;;;;;5054902;28;21535;-75
2022/11/09 05:48:15;;;;;;;1.23;0.70;;;16.40;99.90;;;;;;5050035;28;20166;-74
2022/11/09 05:50:41;;;;;;;1.33;0.80;;;16.40;99.90;;;;;;5051719;28;20174;-75
2022/11/09 05:53:08;;;;;;;1.40;0.90;;;16.40;99.90;;;;;;5051118;28;20201;-74
2022/11/09 05:55:38;;;;;;;0.93;0.77;;;16.40;99.90;;;;;;5048238;28;20200;-75
2022/11/09 05:58:09;;;;;;;2.65;1.00;;;16.40;99.90;;;;;;5052197;28;20209;-76
2022/11/09 06:00:37;;;;;;;1.08;0.88;;;16.30;99.90;;;;;;5055068;28;20209;-76
2022/11/09 06:03:04;;;;;;;0.90;0.68;;;16.30;99.90;;;;;;5055649;28;20177;-76
2022/11/09 06:05:32;;;;;;;1.58;0.88;;;16.30;99.90;;;;;;5053651;28;20197;-76
2022/11/09 06:08:07;;;;;;;1.60;0.85;;;16.30;99.90;;;;;;5053714;28;20189;-75
2022/11/09 06:10:33;;;;;;;2.15;0.73;;;16.20;99.90;;;;;;5051933;28;20870;-75
2022/11/09 06:13:02;;;;;;;1.52;0.70;;;16.20;99.90;;;;;;5053750;28;20198;-75
2022/11/09 06:15:30;;;;;;;2.92;0.80;;;16.20;99.90;;;;;;5039280;28;20181;-75
2022/11/09 06:17:59;;;;;;;1.25;0.68;;;16.20;99.90;;;;;;5057029;28;20173;-78
2022/11/09 06:20:26;;;;;;;1.13;0.70;;;16.20;99.90;;;;;;5056567;28;20243;-76
2022/11/09 06:23:02;;;;;;;1.25;0.77;;;16.10;99.90;;;;;;5049850;28;20247;-77
2022/11/09 06:25:28;;;;;;;1.23;0.60;;;16.10;99.90;;;;;;5051621;28;20173;-73
2022/11/09 06:27:55;;;;;;;0.75;0.63;;;16.10;99.90;;;;;;5054301;28;20209;-77
2022/11/09 06:30:23;;;;;;;2.95;0.80;;;16.10;99.90;;;;;;5057207;28;20201;-76
2022/11/09 06:32:57;;;;;;;0.93;0.70;;;16.10;99.90;;;;;;5054221;28;20240;-76
2022/11/09 06:35:28;;;;;;;2.30;0.85;;;16.10;99.90;;;;;;5053209;28;20194;-75
2022/11/09 06:37:58;;;;;;;1.23;0.70;;;16.10;99.90;;;;;;5046750;28;20189;-77
2022/11/09 06:40:24;;;;;;;1.30;0.70;;;16.10;99.90;;;;;;5055716;28;20174;-76
2022/11/09 06:42:50;;;;;;;1.70;0.85;;;16.10;99.90;;;;;;5066087;28;20169;-76
2022/11/09 06:45:16;;;;;;;1.20;0.60;;;16.00;99.90;;;;;;5064796;28;20188;-75
2022/11/09 06:47:53;;;;;;;1.23;0.60;;;16.00;99.90;;;;;;5048699;28;20174;-76
2022/11/09 06:50:19;;;;;;;1.98;0.95;;;16.00;99.90;;;;;;5053325;28;20204;-76
2022/11/09 06:52:44;;;;;;;1.98;0.82;;;15.90;99.90;;;;;;5044518;28;20225;-76
2022/11/09 06:55:10;;;;;;;1.75;0.80;;;15.90;99.90;;;;;;5056189;28;20231;-75
2022/11/09 06:57:38;;;;;;;1.63;1.02;;;15.90;99.90;;;;;;5052699;28;20228;-75
2022/11/09 07:00:06;;;;;;;2.85;1.05;;;15.90;99.90;;;;;;5051244;28;20181;-75
2022/11/09 07:02:47;;;;;;;1.55;0.80;;;15.90;99.90;;;;;;5051239;28;20194;-76
2022/11/09 07:05:12;;;;;;;1.00;0.60;;;15.80;99.90;;;;;;5050256;28;20197;-75
2022/11/09 07:07:38;;;;;;;1.15;0.82;;;15.80;99.90;;;;;;5056381;28;20174;-75
2022/11/09 07:10:05;;;;;;;1.05;0.77;;;15.70;99.90;;;;;;5054253;28;20173;-76
2022/11/09 07:12:34;;;;;;;1.33;0.60;;;15.70;99.90;;;;;;5056131;28;20180;-75
2022/11/09 07:15:00;;;;;;;1.48;0.70;;;15.70;99.90;;;;;;5048152;28;20197;-76
2022/11/09 07:17:35;;;;;;;1.35;0.80;;;15.70;99.90;;;;;;5042331;28;20174;-76
2022/11/09 07:20:02;;;;;;;0.75;0.68;;;15.60;99.90;;;;;;5054533;28;20201;-77
2022/11/09 07:22:28;;;;;;;2.22;0.80;;;15.60;99.90;;;;;;5050791;28;20227;-78
2022/11/09 07:24:54;;;;;;;1.83;0.80;;;15.60;99.90;;;;;;5047205;28;20185;-76
2022/11/09 07:27:20;;;;;;;1.02;0.63;;;15.60;99.90;;;;;;5053831;28;20197;-77
2022/11/09 07:29:51;;;;;;;1.33;0.77;;;15.60;99.90;;;;;;5049795;28;20189;-76
2022/11/09 07:32:19;;;;;;;3.28;1.35;;;15.60;99.90;;;;;;5047511;28;20288;-75
2022/11/09 07:34:47;;;;;;;1.10;0.90;;;15.70;99.90;;;;;;5044409;28;20170;-76
2022/11/09 07:37:12;;;;;;;1.83;1.00;;;15.70;99.90;;;;;;5055652;28;20169;-77
2022/11/09 07:39:40;;;;;;;2.15;0.90;;;15.70;99.90;;;;;;5050147;28;20174;-78
2022/11/09 07:42:06;;;;;;;1.08;0.60;;;15.70;99.90;;;;;;5054990;28;20212;-77
2022/11/09 07:44:32;;;;;;;1.08;0.57;;;15.70;99.90;;;;;;5061303;28;20188;-77
2022/11/09 07:47:00;;;;;;;1.27;0.60;;;15.80;99.90;;;;;;5052139;28;20209;-79
2022/11/09 07:49:25;;;;;;;1.55;0.70;;;15.80;99.90;;;;;;5054996;28;20205;-78
2022/11/09 07:51:53;;;;;;;1.25;0.50;;;15.80;99.90;;;;;;5046684;28;20166;-80
2022/11/09 07:54:21;;;;;;;1.40;0.70;;;15.90;99.90;;;;;;5061702;28;20197;-79
2022/11/09 07:56:49;;;;;;;2.33;0.80;;;15.90;99.90;;;;;;5054802;28;20274;-78
2022/11/09 07:59:14;;;;;;;1.95;0.80;;;15.90;99.90;;;;;;5042544;28;20181;-79
2022/11/09 08:01:44;;;;;;;1.75;0.80;;;16.00;99.90;;;;;;5055418;28;20193;-77
2022/11/09 08:04:11;;;;;;;1.08;0.75;;;16.00;99.90;;;;;;5055020;28;20244;-79
2022/11/09 08:06:36;;;;;;;2.17;1.00;;;16.00;99.90;;;;;;5055062;28;20288;-78
2022/11/09 08:09:03;;;;;;;2.83;0.98;;;16.10;99.90;;;;;;5051694;28;20268;-78
2022/11/09 08:11:28;;;;;;;1.80;0.90;;;16.10;99.90;;;;;;5041638;28;20172;-79
2022/11/09 08:13:55;;;;;;;1.20;0.70;;;16.10;99.90;;;;;;5035022;28;20272;-77
2022/11/09 08:16:21;;;;;;;2.08;1.00;;;16.20;99.90;;;;;;5056601;28;20213;-76
2022/11/09 08:18:49;;;;;;;3.70;1.70;;;16.20;99.90;;;;;;5049254;28;20189;-77
2022/11/09 08:21:14;;;;;;;4.28;1.17;;;16.20;99.90;;;;;;5047753;28;20176;-77
2022/11/09 08:23:40;;;;;;;3.75;1.20;;;16.30;99.90;;;;;;5057788;28;20207;-77
2022/11/09 08:26:08;;;;;;;2.58;1.00;;;16.30;99.90;;;;;;5054593;28;20193;-78
2022/11/09 08:28:34;;;;;;;4.70;1.20;;;16.40;99.90;;;;;;5071360;28;20264;-78
2022/11/09 08:31:05;;;;;;;4.25;1.15;;;16.40;99.90;;;;;;5053698;28;20209;-77
2022/11/09 08:33:36;;;;;;;2.22;0.90;;;16.40;99.90;;;;;;5055476;28;20177;-78
2022/11/09 08:36:11;;;;;;;2.08;1.00;;;16.50;99.90;;;;;;5054693;28;20181;-78
2022/11/09 08:38:37;;;;;;;1.30;0.80;;;16.50;99.90;;;;;;5053297;28;20181;-78
2022/11/09 08:41:03;;;;;;;1.77;0.93;;;16.60;99.90;;;;;;5065672;28;20184;-78
2022/11/09 08:43:29;;;;;;;2.03;1.25;;;16.60;99.90;;;;;;5053726;28;20342;-77
2022/11/09 08:45:55;;;;;;;2.45;1.35;;;16.70;99.90;;;;;;5053667;28;20246;-78
2022/11/09 08:48:25;;;;;;;2.28;0.90;;;16.70;99.90;;;;;;5054266;28;20173;-78
2022/11/09 08:50:56;;;;;;;3.45;1.02;;;16.80;99.90;;;;;;5053778;28;20200;-78
2022/11/09 08:53:23;;;;;;;1.92;0.80;;;16.90;99.90;;;;;;5054760;28;20162;-77
2022/11/09 08:55:49;;;;;;;3.17;0.80;;;17.00;99.90;;;;;;5050750;28;20174;-77
2022/11/09 08:58:18;;;;;;;1.77;0.80;;;17.30;99.90;;;;;;5049191;28;20178;-78
2022/11/09 09:00:47;;;;;;;1.88;1.10;;;17.50;99.90;;;;;;5051424;28;20268;-79
2022/11/09 09:03:14;;;;;;;1.63;1.00;;;17.80;99.90;;;;;;5035046;28;20444;-78
2022/11/09 09:05:43;;;;;;;2.80;1.10;;;18.10;99.90;;;;;;5053762;28;20255;-77
2022/11/09 09:08:11;;;;;;;2.53;1.00;;;18.40;99.90;;;;;;5054232;28;20177;-77
2022/11/09 09:10:37;;;;;;;1.88;1.20;;;18.70;99.90;;;;;;5054499;28;20280;-76
2022/11/09 09:13:05;;;;;;;1.45;0.73;;;18.90;99.90;;;;;;5054618;28;20224;-77
2022/11/09 09:15:34;;;;;;;1.20;0.68;;;19.10;99.90;;;;;;5054610;28;20166;-77
2022/11/09 09:18:03;;;;;;;1.70;0.70;;;19.20;99.90;;;;;;5054359;28;20204;-76
2022/11/09 09:20:29;;;;;;;1.45;1.00;;;19.40;99.90;;;;;;5054199;28;20170;-78
2022/11/09 09:22:58;;;;;;;2.15;0.80;;;19.40;99.90;;;;;;5063455;28;20348;-76
2022/11/09 09:25:27;;;;;;;2.20;0.80;;;19.40;99.90;;;;;;5068610;28;20184;-77
2022/11/09 09:27:52;;;;;;;1.23;0.73;;;19.40;99.90;;;;;;5058414;28;20204;-77
2022/11/09 09:30:20;;;;;;;1.55;0.82;;;19.20;99.90;;;;;;5061487;28;20189;-77
2022/11/09 09:32:46;;;;;;;3.00;0.80;;;19.20;99.90;;;;;;5054032;28;20185;-77
2022/11/09 09:35:12;;;;;;;2.28;0.90;;;19.20;99.90;;;;;;5054160;28;20188;-76
2022/11/09 09:37:37;;;;;;;3.13;0.88;;;19.20;99.90;;;;;;5052795;28;20205;-76
2022/11/09 09:40:04;;;;;;;1.52;0.85;;;19.10;99.90;;;;;;5034374;28;20174;-77
2022/11/09 09:42:35;;;;;;;0.93;0.60;;;19.00;99.90;;;;;;5036191;28;20200;-78
2022/11/09 09:45:13;;;;;;;2.25;0.60;;;19.00;99.90;;;;;;5037937;28;20250;-79
2022/11/09 09:47:58;;;;;;;1.17;0.60;;;18.90;99.90;;;;;;5038097;28;20200;-75
2022/11/09 09:50:28;;;;;;;2.00;0.70;;;18.80;99.90;;;;;;5051761;28;20274;-77
2022/11/09 09:53:15;;;;;;;2.80;1.02;;;18.70;99.90;;;;;;5072434;28;20188;-77
2022/11/09 09:55:51;;;;;;;1.95;0.73;;;18.60;99.90;;;;;;5061411;28;20216;-77
2022/11/09 09:58:29;;;;;;;2.45;1.13;;;18.50;99.90;;;;;;5057451;28;20177;-76
2022/11/09 10:01:11;;;;;;;2.05;0.85;;;18.40;99.90;;;;;;5057325;28;20238;-75
2022/11/09 10:03:37;;;;;;;2.33;1.00;;;18.30;99.90;;;;;;5053877;28;20186;-78
2022/11/09 10:06:20;;;;;;;1.05;0.50;;;18.30;99.90;;;;;;5056099;28;20181;-78
2022/11/09 10:09:05;;;;;;;2.47;0.70;;;18.30;99.90;;;;;;5054389;28;20189;-78
2022/11/09 10:11:47;;;;;;;1.60;0.73;;;18.30;99.90;;;;;;5057480;28;20411;-77
2022/11/09 10:14:50;;;;;;;1.33;0.65;;;18.30;99.90;;;;;;5056851;28;20220;-77
2022/11/09 10:17:36;;;;;;;4.55;0.90;;;18.40;99.90;;;;;;5050090;28;20213;-77
2022/11/09 10:20:29;;;;;;;3.13;0.60;;;18.50;99.90;;;;;;5047909;28;20278;-78
2022/11/09 10:23:10;;;;;;;2.70;1.00;;;18.50;99.90;;;;;;5058622;28;20185;-78
2022/11/09 10:25:43;;;;;;;2.35;0.65;;;18.50;99.90;;;;;;5046525;28;20224;-77
2022/11/09 10:28:13;;;;;;;3.83;0.85;;;18.50;99.90;;;;;;5053176;28;20193;-77
2022/11/09 10:30:39;;;;;;;1.92;0.80;;;18.50;99.90;;;;;;5045687;28;20182;-78
2022/11/09 10:33:13;;;;;;;2.08;0.90;;;18.50;99.90;;;;;;5057721;28;20169;-78
2022/11/09 10:35:47;;;;;;;2.60;0.90;;;18.50;99.90;;;;;;5068723;28;20239;-77
2022/11/09 10:38:28;;;;;;;1.85;0.77;;;18.50;99.90;;;;;;5036727;28;20229;-78
2022/11/09 10:41:23;;;;;;;2.13;0.80;;;18.40;99.90;;;;;;5045503;28;20256;-76
2022/11/09 10:43:49;;;;;;;2.17;0.80;;;18.40;99.90;;;;;;5056239;28;20254;-78
2022/11/09 10:46:17;;;;;;;3.17;0.82;;;18.30;99.90;;;;;;5056287;28;20193;-76
2022/11/09 10:48:42;;;;;;;3.13;1.00;;;18.30;99.90;;;;;;5056418;28;20220;-79
2022/11/09 10:51:38;;;;;;;1.85;0.68;;;18.20;99.90;;;;;;5056696;28;20190;-76
2022/11/09 10:54:36;;;;;;;5.25;0.93;;;18.20;99.90;;;;;;5056082;28;20169;-77
2022/11/09 10:57:10;;;;;;;4.22;1.10;;;18.20;99.90;;;;;;5044439;28;20182;-77
2022/11/09 10:59:52;;;;;;;3.65;1.15;;;18.20;99.90;;;;;;5057043;28;20184;-77
2022/11/09 11:02:24;;;;;;;2.75;0.80;;;18.20;99.90;;;;;;5056396;28;20208;-77
2022/11/09 11:05:05;;;;;;;2.72;0.82;;;18.20;99.90;;;;;;5056682;28;20201;-78
2022/11/09 11:07:32;;;;;;;4.55;0.90;;;18.20;99.90;;;;;;5056513;28;20216;-77
2022/11/09 11:10:19;;;;;;;3.90;0.88;;;18.20;99.90;;;;;;5056480;28;20180;-77
2022/11/09 11:13:12;;;;;;;2.70;1.00;;;18.30;99.90;;;;;;5056294;28;20240;-77
2022/11/09 11:15:41;;;;;;;4.75;1.00;;;18.30;99.90;;;;;;5039427;28;20169;-77
2022/11/09 11:18:23;;;;;;;5.13;0.95;;;18.20;99.90;;;;;;5056238;28;20193;-78
2022/11/09 11:21:12;;;;;;;4.57;1.02;;;18.20;99.90;;;;;;5056005;28;20181;-78
2022/11/09 11:23:38;;;;;;;2.17;0.70;;;18.10;99.90;;;;;;5071053;28;20196;-78
2022/11/09 11:26:22;;;;;;;2.63;1.10;;;18.10;99.90;;;;;;5058506;28;20197;-77
2022/11/09 11:28:52;;;;;;;2.97;1.20;;;18.00;99.90;;;;;;5058121;28;20196;-77
2022/11/09 11:31:22;;;;;;;1.60;0.77;;;18.00;99.90;;;;;;5055442;28;20184;-77
2022/11/09 11:33:50;;;;;;;1.33;0.60;;;18.00;99.90;;;;;;5056752;28;20181;-77
2022/11/09 11:36:33;;;;;;;3.83;0.90;;;17.90;99.90;;;;;;5038717;28;20197;-78
2022/11/09 11:39:04;;;;;;;3.33;1.02;;;17.90;99.90;;;;;;5047509;28;20240;-77
2022/11/09 11:42:08;;;;;;;3.10;1.10;;;17.90;99.90;;;;;;5053203;28;20208;-78
2022/11/09 11:44:42;;;;;;;1.88;0.90;;;17.90;99.90;;;;;;5043843;28;20236;-77
2022/11/09 11:47:20;;;;;;;1.45;0.80;;;18.00;99.90;;;;;;5043082;28;20228;-79
2022/11/09 11:50:01;;;;;;;1.73;0.70;;;18.00;99.90;;;;;;5055202;28;20197;-77
2022/11/09 11:52:29;;;;;;;2.97;1.00;;;18.10;99.90;;;;;;5038896;28;20224;-77
2022/11/09 11:55:26;;;;;;;2.70;1.05;;;18.10;99.90;;;;;;5054895;28;20260;-77
2022/11/09 11:58:27;;;;;;;1.52;0.80;;;18.20;99.90;;;;;;5055419;28;20196;-77
2022/11/09 12:01:17;;;;;;;4.15;1.05;;;18.20;99.90;;;;;;5055526;28;20177;-78
2022/11/09 12:03:50;;;;;;;2.45;0.95;;;18.20;99.90;;;;;;5046068;28;20257;-77
2022/11/09 12:07:00;;;;;;;2.78;0.90;;;18.20;99.90;;;;;;5051572;28;20213;-78
2022/11/09 12:09:58;;;;;;;2.78;1.00;;;18.20;99.90;;;;;;5044235;28;20213;-78
2022/11/09 12:12:52;;;;;;;4.93;0.95;;;18.20;99.90;;;;;;5031720;28;20181;-77
2022/11/09 12:15:36;;;;;;;3.33;0.90;;;18.20;99.90;;;;;;5014749;28;20178;-78
2022/11/09 12:18:17;;;;;;;2.22;0.80;;;18.10;99.90;;;;;;5054788;28;20199;-77
2022/11/09 12:21:11;;;;;;;4.65;1.00;;;18.10;99.90;;;;;;5054499;28;20223;-76
2022/11/09 12:24:30;;;;;;;2.85;0.80;;;18.10;99.90;;;;;;5049949;28;20178;-77
2022/11/09 12:27:17;;;;;;;4.03;1.00;;;18.20;99.90;;;;;;5011423;28;20225;-76
2022/11/09 12:29:45;;;;;;;3.33;1.00;;;18.20;99.90;;;;;;5050874;28;20464;-78
2022/11/09 12:32:53;;;;;;;3.50;1.05;;;18.20;99.90;;;;;;5054574;28;20177;-77
2022/11/09 12:35:31;;;;;;;2.15;1.00;;;18.20;99.90;;;;;;5054412;28;20173;-78
2022/11/09 12:38:18;;;;;;;2.25;0.75;;;18.20;99.90;;;;;;5054539;28;20215;-78
2022/11/09 12:40:53;;;;;;;4.47;1.05;;;18.20;99.90;;;;;;5054805;28;20184;-79
2022/11/09 12:43:59;;;;;;;2.55;0.85;;;18.10;99.90;;;;;;5054196;28;20172;-78
2022/11/09 12:46:32;;;;;;;4.00;1.10;;;18.10;99.90;;;;;;5050485;28;20193;-76
2022/11/09 12:49:05;;;;;;;2.92;1.02;;;18.10;99.90;;;;;;5048003;28;20180;-77
2022/11/09 12:51:34;;;;;;;3.15;1.00;;;18.10;99.90;;;;;;5050469;28;20190;-77
2022/11/09 12:54:08;;;;;;;3.80;1.10;;;18.10;99.90;;;;;;5053387;28;20180;-77
2022/11/09 12:56:39;;;;;;;2.85;0.98;;;18.10;99.90;;;;;;5054193;28;20203;-79
2022/11/09 12:59:27;;;;;;;2.70;0.95;;;18.10;99.90;;;;;;5054188;28;20208;-77
2022/11/09 13:02:00;;;;;;;2.28;0.95;;;18.10;99.90;;;;;;5045269;28;20260;-78
2022/11/09 13:04:26;;;;;;;3.50;1.00;;;18.00;99.90;;;;;;5035074;28;20253;-76
2022/11/09 13:07:13;;;;;;;6.18;0.85;;;18.00;99.90;;;;;;5035411;28;20260;-77
2022/11/09 13:09:43;;;;;;;2.88;1.02;;;18.00;99.90;;;;;;5034723;28;20170;-77
2022/11/09 13:12:30;;;;;;;2.40;0.90;;;18.00;99.90;;;;;;5034450;28;20170;-76
2022/11/09 13:15:21;;;;;;;2.85;0.82;;;18.10;99.90;;;;;;5042037;28;20207;-79